Time;durP1;ratioP1;P1;durP2;ratioP2;P2;SDS_P1;SDS_P2;PMS_P1;PMS_P2;Temp;Humidity;BMP_temperature;BMP_pressure;BME280_temperature;BME280_humidity;BME280_pressure;Samples;Min_cycle;Max_cycle;Signal;HPM_P1;HPM_P2
2021/07/06 00:01:45;;;;;;;;;3.00;2.00;;;;;20.91;61.55;100112.53;6123090;23;45329;-91
2021/07/06 00:04:11;;;;;;;;;2.67;2.67;;;;;20.92;62.27;100108.94;6123930;23;44859;-91
2021/07/06 00:06:36;;;;;;;;;2.00;2.00;;;;;20.88;61.65;100097.78;6123277;23;47493;-92
2021/07/06 00:09:03;;;;;;;;;2.67;2.33;;;;;20.88;61.99;100092.50;6123029;23;45537;-92
2021/07/06 00:11:28;;;;;;;;;2.00;2.00;;;;;20.87;61.34;100096.13;6123682;23;45234;-91
2021/07/06 00:13:54;;;;;;;;;6.00;3.00;;;;;20.86;61.60;100102.38;6149946;23;45152;-91
2021/07/06 00:16:20;;;;;;;;;2.00;2.00;;;;;20.82;61.37;100078.00;6149684;23;45137;-90
2021/07/06 00:18:45;;;;;;;;;2.00;1.00;;;;;20.83;61.24;100086.78;6149465;23;45282;-91
2021/07/06 00:21:11;;;;;;;;;1.00;1.00;;;;;20.82;60.55;100077.16;6149960;23;45264;-92
2021/07/06 00:23:38;;;;;;;;;1.00;1.00;;;;;20.81;61.21;100070.19;6122720;23;45345;-91
2021/07/06 00:26:03;;;;;;;;;3.00;1.33;;;;;20.83;60.84;100060.34;6123025;23;47508;-91
2021/07/06 00:28:29;;;;;;;;;2.67;1.33;;;;;20.82;60.51;100053.34;6149005;23;45277;-92
2021/07/06 00:30:54;;;;;;;;;0.00;0.00;;;;;20.83;60.71;100061.16;6131758;23;45298;-91
2021/07/06 00:33:20;;;;;;;;;1.33;1.33;;;;;20.83;60.49;100055.06;6149061;23;45350;-91
2021/07/06 00:35:45;;;;;;;;;2.00;2.00;;;;;20.83;60.38;100047.94;6147673;23;48008;-91
2021/07/06 00:38:11;;;;;;;;;0.67;0.67;;;;;20.85;60.68;100049.59;6147248;23;44994;-91
2021/07/06 00:40:37;;;;;;;;;2.67;1.00;;;;;20.88;60.60;100054.66;6148011;23;45272;-92
2021/07/06 00:43:03;;;;;;;;;1.67;1.00;;;;;20.88;61.15;100060.75;6147790;23;45370;-91
2021/07/06 00:45:29;;;;;;;;;1.00;1.00;;;;;20.89;60.92;100053.66;6148895;23;45662;-91
2021/07/06 00:47:57;;;;;;;;;2.00;2.00;;;;;20.89;60.69;100065.09;6147672;23;45391;-91
2021/07/06 00:50:24;;;;;;;;;1.67;1.67;;;;;20.87;61.21;100053.00;6147463;23;45402;-91
2021/07/06 00:52:50;;;;;;;;;1.00;1.00;;;;;20.90;61.22;100072.06;6149530;23;45312;-90
2021/07/06 00:55:16;;;;;;;;;1.00;1.00;;;;;20.88;60.70;100066.03;6146596;23;47299;-91
2021/07/06 00:57:42;;;;;;;;;1.00;1.00;;;;;20.89;60.21;100053.66;6147146;23;45691;-91
2021/07/06 01:00:11;;;;;;;;;2.00;0.00;;;;;20.88;59.97;100044.06;6147559;23;45283;-90
2021/07/06 01:02:37;;;;;;;;;0.67;0.67;;;;;20.81;59.90;100046.41;6147823;22;45428;-91
2021/07/06 01:05:07;;;;;;;;;2.67;1.00;;;;;20.80;59.89;100061.44;6147031;23;47271;-92
2021/07/06 01:07:34;;;;;;;;;1.00;1.00;;;;;20.78;60.16;100046.69;6148307;23;45206;-92
2021/07/06 01:10:00;;;;;;;;;1.00;1.00;;;;;20.75;59.61;100054.88;6149422;23;45351;-91
2021/07/06 01:12:26;;;;;;;;;0.00;0.00;;;;;20.76;59.58;100064.50;6147514;23;44788;-91
2021/07/06 01:14:51;;;;;;;;;2.00;1.00;;;;;20.73;59.80;100057.66;6147229;23;47002;-92
2021/07/06 01:17:25;;;;;;;;;0.00;0.00;;;;;20.70;59.31;100060.59;6149095;23;45441;-91
2021/07/06 01:19:51;;;;;;;;;4.00;0.00;;;;;20.68;59.46;100062.53;6149348;23;45179;-92
2021/07/06 01:22:31;;;;;;;;;0.33;0.33;;;;;20.64;59.40;100075.19;6147337;23;45088;-91
2021/07/06 01:24:58;;;;;;;;;0.00;0.00;;;;;20.61;58.94;100101.91;6146980;23;46348;-90
2021/07/06 01:27:24;;;;;;;;;0.00;0.00;;;;;20.62;59.20;100103.56;6146936;23;45268;-91
2021/07/06 01:29:51;;;;;;;;;0.00;0.00;;;;;20.61;59.03;100093.13;6148979;23;45111;-91
2021/07/06 01:32:16;;;;;;;;;0.00;0.00;;;;;20.60;58.97;100080.91;6122945;23;45361;-91
2021/07/06 01:34:42;;;;;;;;;1.00;1.00;;;;;20.56;59.21;100072.41;6121990;23;46074;-91
2021/07/06 01:37:07;;;;;;;;;0.00;0.00;;;;;20.54;59.26;100091.03;6148927;23;45262;-91
2021/07/06 01:39:33;;;;;;;;;0.00;0.00;;;;;20.54;59.00;100093.69;6122212;23;45579;-91
2021/07/06 01:41:58;;;;;;;;;0.00;0.00;;;;;20.52;58.91;100077.13;6149327;23;45301;-91
2021/07/06 01:44:26;;;;;;;;;0.00;0.00;;;;;20.53;58.98;100075.31;6148693;23;45407;-91
2021/07/06 01:46:55;;;;;;;;;0.00;0.00;;;;;20.48;59.19;100078.38;6148824;23;45347;-91
2021/07/06 01:49:21;;;;;;;;;0.00;0.00;;;;;20.48;59.14;100088.09;6148804;23;45192;-92
2021/07/06 01:51:47;;;;;;;;;1.00;0.00;;;;;20.42;59.27;100100.06;6149376;23;45455;-91
2021/07/06 01:54:14;;;;;;;;;0.00;0.00;;;;;20.36;59.12;100085.56;6121891;23;47443;-91
2021/07/06 01:56:45;;;;;;;;;0.00;0.00;;;;;20.36;59.19;100103.25;6148915;23;45352;-91
2021/07/06 01:59:11;;;;;;;;;1.33;0.00;;;;;20.32;59.18;100100.00;6122240;22;45184;-93
2021/07/06 02:01:37;;;;;;;;;0.00;0.00;;;;;20.28;59.07;100125.06;6122366;23;45255;-90
2021/07/06 02:04:04;;;;;;;;;0.00;0.00;;;;;20.26;59.59;100134.88;6148989;23;46406;-92
2021/07/06 02:06:30;;;;;;;;;0.00;0.00;;;;;20.20;59.51;100152.13;6122024;23;45383;-91
2021/07/06 02:08:56;;;;;;;;;1.00;0.00;;;;;20.20;59.46;100148.63;6122265;23;45380;-91
2021/07/06 02:11:21;;;;;;;;;0.00;0.00;;;;;20.16;59.67;100146.28;6148676;23;45360;-92
2021/07/06 02:13:47;;;;;;;;;0.00;0.00;;;;;20.14;59.70;100156.13;6148282;23;45285;-91
2021/07/06 02:16:12;;;;;;;;;0.00;0.00;;;;;20.11;59.62;100166.97;6149165;23;45230;-91
2021/07/06 02:18:38;;;;;;;;;0.00;0.00;;;;;20.06;59.84;100179.72;6122044;23;45275;-92
2021/07/06 02:21:04;;;;;;;;;0.00;0.00;;;;;20.04;59.88;100184.28;6122505;23;45191;-92
2021/07/06 02:23:30;;;;;;;;;0.00;0.00;;;;;20.02;60.28;100171.22;6122123;23;47144;-92
2021/07/06 02:25:59;;;;;;;;;0.00;0.00;;;;;19.96;60.04;100184.97;6122183;23;45459;-92
2021/07/06 02:28:25;;;;;;;;;0.00;0.00;;;;;19.96;59.64;100192.00;6122392;23;45530;-92
2021/07/06 02:30:50;;;;;;;;;1.00;0.00;;;;;19.93;59.88;100186.97;6129812;23;45545;-92
2021/07/06 02:33:17;;;;;;;;;0.00;0.00;;;;;19.91;60.05;100208.25;6148642;23;45466;-92
2021/07/06 02:35:43;;;;;;;;;1.00;0.00;;;;;19.84;60.11;100178.00;6146788;23;45663;-91
2021/07/06 02:38:10;;;;;;;;;0.00;0.00;;;;;19.82;60.08;100172.88;6147093;23;45177;-91
2021/07/06 02:40:36;;;;;;;;;1.00;0.00;;;;;19.82;60.20;100170.25;6147353;23;45254;-92
2021/07/06 02:43:02;;;;;;;;;0.00;0.00;;;;;19.77;60.29;100157.41;6148191;23;45221;-92
2021/07/06 02:45:29;;;;;;;;;0.00;0.00;;;;;19.81;60.11;100163.28;6146785;23;45589;-93
2021/07/06 02:47:56;;;;;;;;;1.00;0.00;;;;;19.79;60.36;100161.72;6149245;23;45284;-92
2021/07/06 02:50:23;;;;;;;;;0.00;0.00;;;;;19.72;60.33;100161.44;6147223;23;45626;-92
2021/07/06 02:52:49;;;;;;;;;0.00;0.00;;;;;19.71;60.62;100171.13;6146606;23;48384;-91
2021/07/06 02:55:15;;;;;;;;;0.00;0.00;;;;;19.65;60.73;100168.16;6148288;23;45623;-91
2021/07/06 02:57:41;;;;;;;;;0.00;0.00;;;;;19.67;60.81;100169.72;6148968;23;45387;-91
2021/07/06 03:00:16;;;;;;;;;0.00;0.00;;;;;19.66;60.56;100169.88;6148446;23;45299;-91
2021/07/06 03:02:51;;;;;;;;;0.00;0.00;;;;;19.57;61.05;100174.09;6146590;23;47392;-93
2021/07/06 03:05:18;;;;;;;;;1.00;0.00;;;;;19.53;61.28;100175.31;6148289;23;45296;-90
2021/07/06 03:07:44;;;;;;;;;1.00;0.00;;;;;19.54;61.10;100187.53;6148388;23;45259;-91
2021/07/06 03:10:13;;;;;;;;;0.00;0.00;;;;;19.53;61.06;100191.16;6148532;23;45360;-91
2021/07/06 03:12:40;;;;;;;;;0.00;0.00;;;;;19.50;61.00;100197.53;6147680;23;46261;-91
2021/07/06 03:15:08;;;;;;;;;1.33;0.00;;;;;19.50;61.03;100197.53;6146123;23;45483;-91
2021/07/06 03:17:33;;;;;;;;;0.00;0.00;;;;;19.45;60.67;100179.41;6146584;23;45249;-92
2021/07/06 03:20:01;;;;;;;;;0.00;0.00;;;;;19.41;60.48;100182.44;6148796;23;45382;-91
2021/07/06 03:22:27;;;;;;;;;0.00;0.00;;;;;19.40;60.46;100186.91;6145797;23;48164;-92
2021/07/06 03:24:53;;;;;;;;;2.00;0.00;;;;;19.38;60.49;100180.06;6147872;23;45365;-91
2021/07/06 03:27:18;;;;;;;;;0.00;0.00;;;;;19.30;61.07;100178.06;6146102;23;45297;-91
2021/07/06 03:29:44;;;;;;;;;1.00;0.00;;;;;19.28;60.84;100170.28;6148587;23;45280;-91
2021/07/06 03:32:11;;;;;;;;;1.00;0.00;;;;;19.27;60.77;100171.22;6147691;23;46887;-91
2021/07/06 03:34:37;;;;;;;;;0.00;0.00;;;;;19.27;60.89;100173.88;6148217;23;45499;-91
2021/07/06 03:37:02;;;;;;;;;0.00;0.00;;;;;19.23;60.41;100161.88;6147931;23;44833;-91
2021/07/06 03:39:28;;;;;;;;;0.33;0.00;;;;;19.17;59.59;100167.66;6149089;23;45273;-91
2021/07/06 03:41:53;;;;;;;;;0.00;0.00;;;;;19.13;59.64;100174.16;6148235;23;47145;-92
2021/07/06 03:44:19;;;;;;;;;0.00;0.00;;;;;19.07;59.72;100167.59;6147835;23;45591;-91
2021/07/06 03:46:44;;;;;;;;;0.00;0.00;;;;;19.03;59.18;100153.78;6148525;23;45270;-92
2021/07/06 03:49:10;;;;;;;;;0.00;0.00;;;;;18.96;59.00;100150.81;6150484;23;45197;-91
2021/07/06 03:51:35;;;;;;;;;4.00;0.00;;;;;18.92;58.63;100169.59;6150099;23;45329;-91
2021/07/06 03:54:00;;;;;;;;;1.00;0.00;;;;;18.93;58.90;100182.69;6147741;23;45758;-91
2021/07/06 03:56:26;;;;;;;;;0.67;0.00;;;;;18.90;58.60;100167.13;6150247;23;45308;-92
2021/07/06 03:58:51;;;;;;;;;0.00;0.00;;;;;18.86;58.04;100175.38;6148318;23;45285;-90
2021/07/06 04:01:17;;;;;;;;;0.67;0.67;;;;;18.78;57.92;100176.84;6147732;23;46860;-91
2021/07/06 04:03:42;;;;;;;;;0.00;0.00;;;;;18.74;57.76;100171.94;6148251;23;45311;-92
2021/07/06 04:06:07;;;;;;;;;0.00;0.00;;;;;18.67;57.34;100190.03;6147690;23;45283;-91
2021/07/06 04:08:33;;;;;;;;;1.33;0.00;;;;;18.61;57.23;100185.25;6148560;23;45160;-91
2021/07/06 04:10:58;;;;;;;;;1.00;1.00;;;;;18.55;57.12;100187.41;6147989;23;47111;-92
2021/07/06 04:13:23;;;;;;;;;3.00;0.00;;;;;18.52;57.28;100195.53;6147888;23;45222;-91
2021/07/06 04:15:49;;;;;;;;;0.67;0.67;;;;;18.50;57.30;100201.88;6149904;23;45318;-91
2021/07/06 04:18:14;;;;;;;;;1.00;0.00;;;;;18.47;57.51;100210.03;6148202;23;45211;-91
2021/07/06 04:20:40;;;;;;;;;0.67;0.00;;;;;18.43;57.73;100212.09;6149796;23;46311;-92
2021/07/06 04:23:07;;;;;;;;;0.00;0.00;;;;;18.45;57.80;100219.84;6147977;23;45329;-91
2021/07/06 04:25:35;;;;;;;;;1.00;0.33;;;;;18.39;58.33;100208.00;6149532;23;45399;-90
2021/07/06 04:28:00;;;;;;;;;0.67;0.00;;;;;18.39;58.22;100222.03;6149462;23;45594;-91
2021/07/06 04:30:26;;;;;;;;;0.00;0.00;;;;;18.34;57.83;100216.28;6147401;23;47192;-91
2021/07/06 04:32:51;;;;;;;;;1.67;1.00;;;;;18.30;57.99;100222.72;6147650;23;45362;-91
2021/07/06 04:35:18;;;;;;;;;0.00;0.00;;;;;18.28;57.81;100225.47;6149370;23;45248;-90
2021/07/06 04:37:44;;;;;;;;;0.00;0.00;;;;;18.22;57.83;100228.56;6149650;23;45376;-91
2021/07/06 04:40:09;;;;;;;;;1.00;0.00;;;;;18.19;57.85;100227.97;6149201;23;45772;-91
2021/07/06 04:42:35;;;;;;;;;1.00;0.00;;;;;18.20;57.86;100233.13;6148635;23;45620;-90
2021/07/06 04:45:01;;;;;;;;;1.00;1.00;;;;;18.15;57.81;100238.72;6147421;23;45277;-91
2021/07/06 04:47:26;;;;;;;;;0.33;0.00;;;;;18.18;57.89;100242.94;6147680;23;45515;-92
2021/07/06 04:49:52;;;;;;;;;2.00;0.00;;;;;18.11;57.37;100234.69;6147413;23;47283;-90
2021/07/06 04:52:17;;;;;;;;;3.00;0.00;;;;;18.10;57.38;100234.78;6147436;23;46008;-90
2021/07/06 04:54:43;;;;;;;;;1.00;0.33;;;;;18.07;57.58;100235.84;6147252;23;45294;-91
2021/07/06 04:57:08;;;;;;;;;0.00;0.00;;;;;18.09;57.44;100252.38;6147785;23;45306;-91
2021/07/06 04:59:34;;;;;;;;;2.00;0.00;;;;;18.04;57.38;100246.56;6146637;23;46960;-90
2021/07/06 05:02:00;;;;;;;;;0.00;0.00;;;;;18.06;57.24;100249.97;6149247;23;45205;-91
2021/07/06 05:04:27;;;;;;;;;0.67;0.00;;;;;18.05;57.33;100237.72;6149527;23;45233;-90
2021/07/06 05:06:53;;;;;;;;;2.00;1.00;;;;;18.03;57.68;100245.75;6149292;23;45216;-90
2021/07/06 05:09:18;;;;;;;;;1.00;0.00;;;;;18.05;57.19;100261.41;6149324;23;46186;-91
2021/07/06 05:11:43;;;;;;;;;0.00;0.00;;;;;18.02;56.98;100245.88;6146752;23;45401;-91
2021/07/06 05:14:09;;;;;;;;;0.00;0.00;;;;;18.05;56.68;100261.41;6147348;23;44955;-91
2021/07/06 05:16:34;;;;;;;;;1.00;1.00;;;;;18.02;56.27;100251.13;6147590;23;45175;-91
2021/07/06 05:19:00;;;;;;;;;1.00;0.00;;;;;18.01;55.95;100254.72;6147217;23;47394;-90
2021/07/06 05:21:25;;;;;;;;;1.33;1.00;;;;;18.04;55.34;100262.38;6149246;23;45366;-91
2021/07/06 05:23:51;;;;;;;;;1.67;1.00;;;;;17.99;55.48;100268.00;6148844;23;45402;-91
2021/07/06 05:26:16;;;;;;;;;1.00;1.00;;;;;17.99;55.95;100262.72;6149277;23;45297;-91
2021/07/06 05:28:41;;;;;;;;;3.33;1.00;;;;;18.00;55.25;100274.06;6148718;23;46382;-91
2021/07/06 05:31:07;;;;;;;;;2.00;1.00;;;;;17.97;55.15;100264.63;6146656;23;45265;-90
2021/07/06 05:33:33;;;;;;;;;1.00;1.00;;;;;17.94;55.02;100277.16;6148827;23;45245;-91
2021/07/06 05:35:58;;;;;;;;;3.00;0.00;;;;;17.87;55.35;100272.38;6147273;23;45291;-91
2021/07/06 05:38:23;;;;;;;;;1.00;1.00;;;;;17.85;55.83;100278.69;6148629;23;45479;-90
2021/07/06 05:40:57;;;;;;;;;1.00;0.00;;;;;17.85;55.00;100283.97;6147198;23;45400;-91
2021/07/06 05:43:23;;;;;;;;;3.67;0.67;;;;;17.77;54.58;100279.25;6148224;23;45288;-91
2021/07/06 05:45:55;;;;;;;;;3.00;1.00;;;;;17.73;54.15;100280.47;6147490;23;45405;-90
2021/07/06 05:48:21;;;;;;;;;2.67;1.00;;;;;17.69;53.81;100289.53;6148633;23;45267;-91
2021/07/06 05:50:47;;;;;;;;;0.00;0.00;;;;;17.64;53.90;100300.41;6148992;23;45590;-91
2021/07/06 05:53:13;;;;;;;;;0.67;0.67;;;;;17.61;54.73;100300.59;6148766;23;44660;-91
2021/07/06 05:55:39;;;;;;;;;1.33;0.00;;;;;17.62;54.76;100307.53;6145441;23;45390;-91
2021/07/06 05:58:05;;;;;;;;;1.00;1.00;;;;;17.61;55.24;100301.47;6146279;23;47557;-91
2021/07/06 06:00:31;;;;;;;;;1.00;0.00;;;;;17.61;55.08;100308.50;6146656;23;45335;-90
2021/07/06 06:02:56;;;;;;;;;1.00;1.00;;;;;17.63;54.98;100306.59;6148466;23;45590;-91
2021/07/06 06:05:21;;;;;;;;;3.00;0.00;;;;;17.62;54.92;100299.66;6146537;23;45386;-89
2021/07/06 06:07:49;;;;;;;;;1.67;0.67;;;;;17.65;55.34;100299.44;6146515;23;47834;-90
2021/07/06 06:10:15;;;;;;;;;1.00;0.33;;;;;17.69;55.43;100308.78;6146223;23;45469;-91
2021/07/06 06:12:41;;;;;;;;;1.33;1.00;;;;;17.72;55.61;100316.44;6147927;23;45614;-92
2021/07/06 06:15:08;;;;;;;;;3.00;2.00;;;;;17.73;55.20;100312.03;6146347;23;45363;-90
2021/07/06 06:17:35;;;;;;;;;3.00;0.00;;;;;17.71;55.31;100314.78;6148495;23;45391;-90
2021/07/06 06:20:00;;;;;;;;;2.67;1.00;;;;;17.67;55.05;100318.56;6148465;23;45252;-90
2021/07/06 06:22:25;;;;;;;;;2.00;1.00;;;;;17.62;54.63;100315.44;6147977;23;45323;-91
2021/07/06 06:24:51;;;;;;;;;1.67;1.00;;;;;17.64;55.47;100324.06;6146524;23;45291;-90
2021/07/06 06:27:16;;;;;;;;;3.67;1.00;;;;;17.65;54.53;100327.53;6147514;23;45362;-90
2021/07/06 06:29:43;;;;;;;;;0.00;0.00;;;;;17.67;55.07;100342.25;6145964;23;45522;-89
2021/07/06 06:32:09;;;;;;;;;2.00;1.00;;;;;17.69;55.41;100353.50;6145823;23;45185;-90
2021/07/06 06:34:35;;;;;;;;;2.00;2.00;;;;;17.74;55.23;100347.91;6148554;23;45154;-90
2021/07/06 06:37:00;;;;;;;;;5.00;1.67;;;;;17.79;55.18;100366.00;6147765;23;45555;-90
2021/07/06 06:39:26;;;;;;;;;2.67;1.00;;;;;17.78;53.85;100362.53;6147464;23;45260;-90
2021/07/06 06:41:51;;;;;;;;;2.00;2.00;;;;;17.72;53.74;100348.03;6147383;23;44697;-90
2021/07/06 06:44:16;;;;;;;;;2.00;1.67;;;;;17.71;54.45;100363.91;6148279;23;45450;-90
2021/07/06 06:46:42;;;;;;;;;2.33;1.33;;;;;17.69;54.50;100357.94;6147106;23;46499;-89
2021/07/06 06:49:08;;;;;;;;;0.67;0.67;;;;;17.68;55.16;100356.25;6147860;23;45245;-89
2021/07/06 06:51:34;;;;;;;;;2.33;1.00;;;;;17.65;55.50;100349.44;6148241;23;45363;-90
2021/07/06 06:54:01;;;;;;;;;2.33;1.00;;;;;17.67;55.91;100362.47;6147490;23;45233;-90
2021/07/06 06:56:27;;;;;;;;;3.33;3.33;;;;;17.65;56.29;100364.38;6146014;23;46377;-89
2021/07/06 06:58:52;;;;;;;;;1.00;1.00;;;;;17.63;56.14;100367.09;6147378;23;45431;-89
2021/07/06 07:01:17;;;;;;;;;2.00;1.00;;;;;17.62;55.99;100366.28;6146131;23;45246;-90
2021/07/06 07:03:43;;;;;;;;;1.67;1.67;;;;;17.62;55.70;100379.44;6146066;23;45314;-91
2021/07/06 07:06:08;;;;;;;;;2.00;1.00;;;;;17.60;55.68;100380.50;6146506;23;46428;-91
2021/07/06 07:08:33;;;;;;;;;5.00;1.00;;;;;17.59;55.76;100384.09;6145919;23;45275;-91
2021/07/06 07:10:59;;;;;;;;;2.00;2.00;;;;;17.56;55.11;100386.91;6146172;23;44919;-90
2021/07/06 07:13:26;;;;;;;;;4.00;2.00;;;;;17.48;54.98;100390.09;6147390;23;45189;-89
2021/07/06 07:15:52;;;;;;;;;3.00;2.00;;;;;17.46;55.46;100397.25;6146947;23;45471;-91
2021/07/06 07:18:17;;;;;;;;;3.00;1.00;;;;;17.47;55.50;100406.81;6145583;23;45470;-90
2021/07/06 07:20:43;;;;;;;;;1.00;1.00;;;;;17.48;55.31;100398.84;6145707;23;45396;-90
2021/07/06 07:23:08;;;;;;;;;1.67;1.67;;;;;17.48;55.58;100390.94;6146515;23;45504;-92
2021/07/06 07:25:34;;;;;;;;;3.33;2.00;;;;;17.50;55.45;100396.91;6147727;23;45225;-90
2021/07/06 07:27:59;;;;;;;;;2.00;2.00;;;;;17.52;55.03;100396.81;6147660;23;45271;-90
2021/07/06 07:30:25;;;;;;;;;2.00;2.00;;;;;17.50;55.20;100414.50;6146898;23;45528;-90
2021/07/06 07:32:52;;;;;;;;;3.00;2.00;;;;;17.49;54.70;100413.66;6117993;23;45257;-90
2021/07/06 07:35:18;;;;;;;;;1.67;1.67;;;;;17.50;55.29;100407.44;6117778;23;46463;-90
2021/07/06 07:37:44;;;;;;;;;5.00;3.00;;;;;17.49;55.29;100411.03;6116626;23;45326;-89
2021/07/06 07:40:12;;;;;;;;;3.33;1.00;;;;;17.53;54.71;100416.09;6118066;23;45140;-90
2021/07/06 07:42:37;;;;;;;;;4.00;2.00;;;;;17.50;54.85;100428.50;6115660;23;45417;-89
2021/07/06 07:45:03;;;;;;;;;4.67;1.00;;;;;17.53;54.56;100423.97;6115380;23;46195;-89
2021/07/06 07:47:28;;;;;;;;;1.00;0.33;;;;;17.52;54.77;100443.31;6117454;23;45386;-89
2021/07/06 07:49:54;;;;;;;;;2.00;2.00;;;;;17.53;55.16;100439.75;6117555;23;45372;-89
2021/07/06 07:52:19;;;;;;;;;3.00;2.00;;;;;17.52;54.89;100438.91;6117843;23;45223;-90
2021/07/06 07:54:45;;;;;;;;;3.00;2.00;;;;;17.55;55.07;100432.59;6117355;23;45408;-89
2021/07/06 07:57:10;;;;;;;;;2.67;2.00;;;;;17.58;55.01;100430.59;6117512;23;45470;-90
2021/07/06 07:59:37;;;;;;;;;2.67;2.00;;;;;17.59;55.09;100437.53;6115655;23;45547;-89
2021/07/06 08:02:03;;;;;;;;;3.67;2.00;;;;;17.61;55.30;100440.06;6118276;23;45191;-90
2021/07/06 08:04:28;;;;;;;;;3.00;2.33;;;;;17.65;55.28;100438.03;6115643;23;47112;-90
2021/07/06 08:06:54;;;;;;;;;3.00;2.67;;;;;17.68;55.27;100433.41;6117648;23;45223;-90
2021/07/06 08:09:19;;;;;;;;;2.67;2.00;;;;;17.73;54.86;100449.69;6115916;23;45476;-90
2021/07/06 08:11:45;;;;;;;;;4.00;2.33;;;;;17.77;54.76;100455.59;6118209;23;45418;-89
2021/07/06 08:14:10;;;;;;;;;3.67;1.67;;;;;17.78;54.89;100470.44;6117160;23;45204;-91
2021/07/06 08:16:36;;;;;;;;;1.67;1.00;;;;;17.79;54.56;100452.84;6118112;23;45543;-91
2021/07/06 08:19:01;;;;;;;;;3.33;0.33;;;;;17.84;54.59;100453.38;6119292;23;45291;-90
2021/07/06 08:21:26;;;;;;;;;1.33;0.33;;;;;17.87;54.51;100461.88;6120096;23;45401;-89
2021/07/06 08:23:52;;;;;;;;;2.00;2.00;;;;;17.91;53.79;100473.03;6118962;23;45382;-90
2021/07/06 08:26:17;;;;;;;;;2.00;2.00;;;;;17.88;54.21;100471.44;6117105;23;45266;-89
2021/07/06 08:28:45;;;;;;;;;2.00;2.00;;;;;17.92;54.38;100479.13;6118747;23;45287;-91
2021/07/06 08:31:11;;;;;;;;;2.67;2.00;;;;;17.92;53.52;100477.38;6136148;23;45305;-90
2021/07/06 08:33:37;;;;;;;;;3.33;1.67;;;;;17.95;54.05;100476.31;6121337;23;46193;-90
2021/07/06 08:36:02;;;;;;;;;2.67;2.33;;;;;17.99;54.13;100489.13;6121410;23;45265;-90
2021/07/06 08:38:27;;;;;;;;;4.67;2.33;;;;;18.00;54.11;100485.53;6149339;23;45259;-90
2021/07/06 08:40:53;;;;;;;;;3.33;2.00;;;;;18.05;53.63;100492.28;6123284;22;45336;-90
2021/07/06 08:43:19;;;;;;;;;3.33;2.00;;;;;18.05;54.04;100492.28;6148807;23;46258;-90
2021/07/06 08:45:45;;;;;;;;;3.00;2.00;;;;;18.06;53.75;100493.94;6122371;23;45256;-91
2021/07/06 08:48:12;;;;;;;;;4.00;3.00;;;;;18.08;53.58;100494.69;6122873;22;45380;-92
2021/07/06 08:50:38;;;;;;;;;4.00;1.67;;;;;18.10;53.89;100505.97;6122632;22;45661;-90
2021/07/06 08:53:04;;;;;;;;;2.67;2.00;;;;;18.09;53.66;100496.41;6148332;23;46139;-90
2021/07/06 08:55:30;;;;;;;;;4.67;2.00;;;;;18.14;53.78;100505.66;6122391;22;45330;-91
2021/07/06 08:57:56;;;;;;;;;2.00;1.00;;;;;18.16;54.09;100508.16;6149567;23;45329;-90
2021/07/06 09:00:22;;;;;;;;;5.33;1.00;;;;;18.21;53.47;100513.94;6122478;22;45312;-90
2021/07/06 09:03:02;;;;;;;;;3.00;1.67;;;;;18.19;53.09;100515.00;6121561;23;47293;-89
2021/07/06 09:05:28;;;;;;;;;4.00;2.00;;;;;18.19;53.22;100513.19;6122075;23;45418;-90
2021/07/06 09:07:54;;;;;;;;;4.00;3.00;;;;;18.22;53.15;100513.00;6122521;22;45350;-92
2021/07/06 09:10:24;;;;;;;;;4.00;3.00;;;;;18.24;53.02;100521.63;6122379;23;45373;-90
2021/07/06 09:12:50;;;;;;;;;2.33;2.00;;;;;18.27;53.60;100528.44;6148978;23;45405;-91
2021/07/06 09:15:22;;;;;;;;;4.33;2.67;;;;;18.28;53.39;100527.50;6148601;23;44668;-90
2021/07/06 09:18:11;;;;;;;;;4.67;2.00;;;;;18.26;53.21;100535.53;6148662;23;45212;-89
2021/07/06 09:20:38;;;;;;;;;2.67;1.00;;;;;18.28;53.28;100516.97;6149319;23;45359;-90
2021/07/06 09:23:41;;;;;;;;;4.33;1.67;;;;;18.29;53.28;100522.13;6122188;22;47412;-90
2021/07/06 09:26:08;;;;;;;;;2.33;2.00;;;;;18.38;53.18;100525.06;6121936;23;45390;-90
2021/07/06 09:28:36;;;;;;;;;2.00;2.00;;;;;18.43;52.66;100521.13;6121517;23;45314;-88
2021/07/06 09:31:13;;;;;;;;;2.33;1.00;;;;;18.51;52.80;100527.66;6122160;23;45403;-90
2021/07/06 09:33:51;;;;;;;;;2.33;2.00;;;;;18.55;52.57;100527.31;6122160;22;47490;-90
2021/07/06 09:36:31;;;;;;;;;1.67;1.67;;;;;18.66;52.75;100523.88;6149024;23;45227;-89
2021/07/06 09:39:06;;;;;;;;;2.67;2.00;;;;;18.76;52.67;100529.31;6121544;23;45314;-91
2021/07/06 09:41:31;;;;;;;;;6.00;1.00;;;;;18.92;52.34;100530.78;6148868;23;45354;-91
2021/07/06 09:44:25;;;;;;;;;2.67;2.00;;;;;18.99;52.94;100520.63;6148271;23;45491;-90
2021/07/06 09:46:52;;;;;;;;;1.33;1.00;;;;;19.09;52.11;100514.59;6143231;23;45625;-91
2021/07/06 09:49:21;;;;;;;;;1.33;1.33;;;;;19.12;52.10;100525.84;6121827;22;45335;-90
2021/07/06 09:51:48;;;;;;;;;4.67;3.67;;;;;19.21;51.52;100531.28;6148281;23;45320;-90
2021/07/06 09:54:25;;;;;;;;;3.00;2.00;;;;;19.31;51.98;100536.69;6121309;23;48250;-90
2021/07/06 09:56:54;;;;;;;;;3.00;1.67;;;;;19.47;51.49;100533.72;6148541;23;45381;-91
2021/07/06 09:59:20;;;;;;;;;3.67;1.00;;;;;19.59;51.22;100529.28;6121041;22;45337;-90
2021/07/06 10:01:53;;;;;;;;;2.67;2.00;;;;;19.71;50.35;100535.41;6148019;23;45317;-91
2021/07/06 10:04:21;;;;;;;;;2.00;1.33;;;;;19.82;49.57;100554.84;6148336;23;46378;-91
2021/07/06 10:06:47;;;;;;;;;4.00;2.00;;;;;19.86;49.01;100543.91;6147970;23;45438;-91
2021/07/06 10:09:13;;;;;;;;;1.33;1.33;;;;;19.92;49.92;100539.97;6147548;23;45247;-91
2021/07/06 10:11:39;;;;;;;;;2.33;1.00;;;;;19.99;49.65;100543.81;6122375;23;45536;-91
2021/07/06 10:14:05;;;;;;;;;2.00;2.00;;;;;20.08;49.39;100539.63;6147805;23;45400;-91
2021/07/06 10:16:31;;;;;;;;;3.00;1.00;;;;;20.28;49.41;100550.41;6121272;23;45388;-90
2021/07/06 10:18:57;;;;;;;;;1.00;1.00;;;;;20.50;48.80;100572.44;6121145;23;45525;-90
2021/07/06 10:21:23;;;;;;;;;2.00;1.00;;;;;20.64;48.57;100548.38;6146145;22;45338;-90
2021/07/06 10:23:50;;;;;;;;;1.67;1.67;;;;;20.76;48.75;100561.53;6145155;22;46411;-90
2021/07/06 10:26:28;;;;;;;;;1.67;1.67;;;;;20.74;48.05;100574.06;6146013;22;45409;-90
2021/07/06 10:28:55;;;;;;;;;1.67;1.00;;;;;20.70;47.77;100569.00;6146154;22;45370;-91
2021/07/06 10:31:21;;;;;;;;;3.67;2.00;;;;;20.74;46.84;100568.78;6145581;22;45392;-90
2021/07/06 10:33:48;;;;;;;;;4.33;2.00;;;;;20.72;46.71;100554.81;6145444;22;45457;-90
2021/07/06 10:36:16;;;;;;;;;2.00;1.00;;;;;20.68;47.18;100557.72;6146006;22;45926;-89
2021/07/06 10:38:45;;;;;;;;;1.00;1.00;;;;;20.70;46.79;100560.25;6145227;22;45399;-89
2021/07/06 10:41:23;;;;;;;;;1.00;1.00;;;;;20.71;46.77;100561.94;6118657;22;45653;-89
2021/07/06 10:43:55;;;;;;;;;1.00;1.00;;;;;20.71;47.25;100561.94;6118416;22;46066;-90
2021/07/06 10:46:21;;;;;;;;;0.67;0.67;;;;;20.75;47.09;100573.09;6119068;22;45426;-90
2021/07/06 10:48:56;;;;;;;;;1.00;1.00;;;;;20.74;47.27;100559.00;6118779;22;45421;-90
2021/07/06 10:51:34;;;;;;;;;0.00;0.00;;;;;20.77;46.50;100564.06;6118988;22;45501;-91
2021/07/06 10:54:15;;;;;;;;;1.67;1.67;;;;;20.76;47.26;100580.03;6117884;22;47911;-90
2021/07/06 10:56:46;;;;;;;;;1.00;1.00;;;;;20.74;46.49;100584.63;6118433;22;45489;-90
2021/07/06 10:59:24;;;;;;;;;1.33;1.33;;;;;20.69;46.94;100590.31;6145531;22;45678;-90
2021/07/06 11:01:49;;;;;;;;;2.33;1.00;;;;;20.68;46.72;100586.81;6145909;22;45228;-90
2021/07/06 11:04:46;;;;;;;;;1.00;1.00;;;;;20.67;46.74;100590.41;6119320;22;46362;-90
2021/07/06 11:07:35;;;;;;;;;4.33;1.33;;;;;20.72;46.83;100587.41;6025934;23;45356;-90
2021/07/06 11:10:05;;;;;;;;;3.00;1.33;;;;;20.80;46.12;100603.50;6025687;23;45416;-90
2021/07/06 11:12:46;;;;;;;;;1.00;1.00;;;;;20.81;46.65;100597.22;6026087;23;45412;-89
2021/07/06 11:15:12;;;;;;;;;1.67;1.67;;;;;20.83;46.27;100603.22;6024591;23;47288;-91
2021/07/06 11:17:39;;;;;;;;;2.33;1.00;;;;;20.87;45.86;100600.38;6024952;23;45380;-91
2021/07/06 11:20:10;;;;;;;;;3.33;1.00;;;;;21.05;46.57;100601.47;6026228;23;45307;-90
2021/07/06 11:22:47;;;;;;;;;1.33;1.00;;;;;21.22;46.77;100600.09;6026678;23;45338;-91
2021/07/06 11:25:31;;;;;;;;;3.00;1.00;;;;;21.27;45.59;100597.06;6024825;23;46430;-91